Pagrindinis puslapis
METAR-TAF:

METAR-TAF

Oro uostai :

Rionė, Danija

platuma: 55-04N, ilguma: 014-45E, Aukštis: 16 m

Dabartinis oras

Ataskaita buvo paskelbta 28 minutes, ne 03:20 UTC
Vėjas 10 kt iš Vakarų/Šiaurės Vakarų
Temperatūra 15°C
Drėgmė 72%
Slėgis 1018 hPa
Matomumas 10 km arba daugiau

METAR: EKRN 060320Z AUTO 29010KT 9999 FEW024/// SCT067/// BKN087/// 15/10 Q1018

Laikas: 05:48 (03:48 UTC)

Prognozė

Ataskaita buvo paskelbta 1 valandą ir 45 minutes, ne 02:03 UTC
Prognozė galioja nuo 06 metu 03 UTC su 06 metu 12 UTC
Vėjas 12 kt iš Vakarų/Šiaurės Vakarų
Matomumas 10 km arba daugiau
Išsisklaidę debesys ne aukštis 2500 ft
Išsisklaidę debesys ne aukštis 8000 ft
Laikinai
nuo 06 metu 03 UTC su 06 metu 09 UTC
Vėjas 13 kt iš Vakarų/Šiaurės Vakarų su gūsio iki 23 kt
Išsisklaidę debesys ne aukštis 2000 ft, aukštai iškilę kamuoliniai debesys.
lietus
Laikinai
nuo 06 metu 09 UTC su 06 metu 12 UTC
Vėjas 17 kt iš Vakarų su gūsio iki 27 kt

TAF: EKRN 060203Z 0603/0612 29012KT 9999 SCT025 SCT080 TEMPO 0603/0609 29013G23KT -SHRA SCT020TCU TEMPO 0609/0612 28017G27KT

Orai ataskaitas ir orų prognozės (METAR, TAF).

turimą stotys yra geltonos ir raudonos taškus žemėlapyje.

Perkelti pele per norėdami pamatyti stoties vardą.

Tada spustelėkite, norėdami matyti oro stebėjimo ir prognozės.

Norėdami pakeisti žemėlapį: spustelėkite ant žalios mygtukų su juodo kryžiaus žemyn,; žalią mygtuką su brūkšneliu, jei norite nutolinti; arba žalių rodyklių gretimoms žemėlapius.


METAR-TAF: